Terminal Aerodrome Forecast
Issued by NWS

Home | Current Version | Previous Version | Text Only | Print | Product List | Glossary Off
Versions: 1 2 3 4 5 6 7 8 9 10 11 12 13 14 15 16 17 18 19

000
FTUS43 KICT 161700
TAFCNU
TAF
KCNU 161739Z 1618/1718 10008KT P6SM SCT035
     FM170700 10005KT P6SM BKN017
     FM171100 VRB03KT 4SM BR SCT009 BKN017
     FM171700 19007KT P6SM SCT017 BKN035=

USA.gov is the U.S. government's official web portal to all federal, state and local government web resources and services.